Mc Leansville, North Carolina
Current Conditions -  °F | °C
As of 5:54 PM on Wednesday 22 Oct 2014 (Local Time) from KBUY Reporting Station
Few Clouds Few Clouds  
Wind Chill: 60°   Ceiling: Unl
Heat Index: 60°   Visibility: 10mi
Dew Point: 39°   Wind: 12mph
Humidity: 46%   Direction: 280°W
Pressure: 30"   Gusts: NA
Location:  36.112°N, 79.6658°W
Report Text: KBUY 222154Z AUTO 28010KT 10SM FEW055 16/04 A3000 RMK AO2 SLP159 T01560039
Loading
Personal Weather Stations






























Interactive Weather Map
Tropical Storm Tracking
New forecast layout! Learn more

10-Day Weather Forecast

Advertisements
Track Severe Weather on mobile